Mount Zion, Iowa
Current Conditions -  °F | °C
As of 10:55 AM on Sunday 28 Dec 2014 (Local Time) from KFFL Reporting Station
Clear Clear  
Wind Chill: 21°   Ceiling: Unl
Heat Index: 28°   Visibility: 10mi
Dew Point: 18°   Wind: 7mph
Humidity: 64%   Direction: 210°SSW
Pressure: 30.2"   Gusts: NA
Location:  40.7687°N, 92.0788°W
Report Text: KFFL 281655Z AUTO 21006KT 10SM CLR M02/M08 A3020 RMK AO2
Loading
Personal Weather Stations






























Interactive Weather Map New forecast layout! Learn more

10-Day Weather Forecast

Advertisements
Track Severe Weather on mobile